sensor_id;sensor_type;location;lat;lon;timestamp;P1;durP1;ratioP1;P2;durP2;ratioP2
16870;SDS011;8552;48.120;-1.456;2022-07-05T00:01:05;0.60;;;0.60;;
16870;SDS011;8552;48.120;-1.456;2022-07-05T00:03:30;0.73;;;0.50;;
16870;SDS011;8552;48.120;-1.456;2022-07-05T00:05:56;4.25;;;0.90;;
16870;SDS011;8552;48.120;-1.456;2022-07-05T00:08:22;1.17;;;0.80;;
16870;SDS011;8552;48.120;-1.456;2022-07-05T00:10:49;0.73;;;0.65;;
16870;SDS011;8552;48.120;-1.456;2022-07-05T00:13:15;1.65;;;0.88;;
16870;SDS011;8552;48.120;-1.456;2022-07-05T00:15:40;0.68;;;0.57;;
16870;SDS011;8552;48.120;-1.456;2022-07-05T00:18:06;0.80;;;0.80;;
16870;SDS011;8552;48.120;-1.456;2022-07-05T00:20:32;0.60;;;0.60;;
16870;SDS011;8552;48.120;-1.456;2022-07-05T00:22:58;2.63;;;0.75;;
16870;SDS011;8552;48.120;-1.456;2022-07-05T00:25:23;1.33;;;0.55;;
16870;SDS011;8552;48.120;-1.456;2022-07-05T00:27:49;1.35;;;0.47;;
16870;SDS011;8552;48.120;-1.456;2022-07-05T00:30:15;0.68;;;0.40;;
16870;SDS011;8552;48.120;-1.456;2022-07-05T00:32:41;1.00;;;0.70;;
16870;SDS011;8552;48.120;-1.456;2022-07-05T00:35:07;0.40;;;0.40;;
16870;SDS011;8552;48.120;-1.456;2022-07-05T00:37:33;2.67;;;0.55;;
16870;SDS011;8552;48.120;-1.456;2022-07-05T00:39:59;0.40;;;0.40;;
16870;SDS011;8552;48.120;-1.456;2022-07-05T00:42:26;0.65;;;0.60;;
16870;SDS011;8552;48.120;-1.456;2022-07-05T00:44:51;1.33;;;0.60;;
16870;SDS011;8552;48.120;-1.456;2022-07-05T00:47:18;0.95;;;0.60;;
16870;SDS011;8552;48.120;-1.456;2022-07-05T00:49:44;2.15;;;0.82;;
16870;SDS011;8552;48.120;-1.456;2022-07-05T00:52:10;2.53;;;0.77;;
16870;SDS011;8552;48.120;-1.456;2022-07-05T00:54:37;0.70;;;0.70;;
16870;SDS011;8552;48.120;-1.456;2022-07-05T00:57:04;1.13;;;0.75;;
16870;SDS011;8552;48.120;-1.456;2022-07-05T00:59:31;2.25;;;0.90;;
16870;SDS011;8552;48.120;-1.456;2022-07-05T01:01:57;0.93;;;0.93;;
16870;SDS011;8552;48.120;-1.456;2022-07-05T01:04:23;1.25;;;1.00;;
16870;SDS011;8552;48.120;-1.456;2022-07-05T01:06:49;1.73;;;1.00;;
16870;SDS011;8552;48.120;-1.456;2022-07-05T01:09:17;0.90;;;0.90;;
16870;SDS011;8552;48.120;-1.456;2022-07-05T01:11:44;0.93;;;0.85;;
16870;SDS011;8552;48.120;-1.456;2022-07-05T01:14:12;1.30;;;1.05;;
16870;SDS011;8552;48.120;-1.456;2022-07-05T01:16:42;0.82;;;0.80;;
16870;SDS011;8552;48.120;-1.456;2022-07-05T01:19:09;1.77;;;0.90;;
16870;SDS011;8552;48.120;-1.456;2022-07-05T01:21:42;3.42;;;0.70;;
16870;SDS011;8552;48.120;-1.456;2022-07-05T01:24:09;0.60;;;0.60;;
16870;SDS011;8552;48.120;-1.456;2022-07-05T01:26:37;1.08;;;0.68;;
16870;SDS011;8552;48.120;-1.456;2022-07-05T01:29:03;0.85;;;0.85;;
16870;SDS011;8552;48.120;-1.456;2022-07-05T01:31:30;1.40;;;1.00;;
16870;SDS011;8552;48.120;-1.456;2022-07-05T01:33:56;1.10;;;1.00;;
16870;SDS011;8552;48.120;-1.456;2022-07-05T01:36:23;1.23;;;1.00;;
16870;SDS011;8552;48.120;-1.456;2022-07-05T01:38:49;2.00;;;0.93;;
16870;SDS011;8552;48.120;-1.456;2022-07-05T01:41:15;0.80;;;0.80;;
16870;SDS011;8552;48.120;-1.456;2022-07-05T01:43:41;1.08;;;0.98;;
16870;SDS011;8552;48.120;-1.456;2022-07-05T01:46:06;0.90;;;0.90;;
16870;SDS011;8552;48.120;-1.456;2022-07-05T01:48:35;1.00;;;0.95;;
16870;SDS011;8552;48.120;-1.456;2022-07-05T01:51:06;1.60;;;1.00;;
16870;SDS011;8552;48.120;-1.456;2022-07-05T01:53:35;1.10;;;1.00;;
16870;SDS011;8552;48.120;-1.456;2022-07-05T01:56:04;0.68;;;0.68;;
16870;SDS011;8552;48.120;-1.456;2022-07-05T01:58:30;0.82;;;0.70;;
16870;SDS011;8552;48.120;-1.456;2022-07-05T02:00:57;1.05;;;0.90;;
16870;SDS011;8552;48.120;-1.456;2022-07-05T02:03:24;0.98;;;0.80;;
16870;SDS011;8552;48.120;-1.456;2022-07-05T02:05:52;2.65;;;0.80;;
16870;SDS011;8552;48.120;-1.456;2022-07-05T02:08:18;0.60;;;0.60;;
16870;SDS011;8552;48.120;-1.456;2022-07-05T02:10:44;0.93;;;0.63;;
16870;SDS011;8552;48.120;-1.456;2022-07-05T02:13:10;0.63;;;0.63;;
16870;SDS011;8552;48.120;-1.456;2022-07-05T02:15:37;0.70;;;0.70;;
16870;SDS011;8552;48.120;-1.456;2022-07-05T02:18:04;0.80;;;0.80;;
16870;SDS011;8552;48.120;-1.456;2022-07-05T02:20:32;1.27;;;0.90;;
16870;SDS011;8552;48.120;-1.456;2022-07-05T02:22:58;1.27;;;0.75;;
16870;SDS011;8552;48.120;-1.456;2022-07-05T08:13:13;1.25;;;0.70;;
16870;SDS011;8552;48.120;-1.456;2022-07-05T08:15:39;0.40;;;0.40;;
16870;SDS011;8552;48.120;-1.456;2022-07-05T08:18:05;0.68;;;0.47;;
16870;SDS011;8552;48.120;-1.456;2022-07-05T08:20:49;0.45;;;0.45;;
16870;SDS011;8552;48.120;-1.456;2022-07-05T08:23:33;0.50;;;0.50;;
16870;SDS011;8552;48.120;-1.456;2022-07-05T08:25:59;1.42;;;0.40;;
16870;SDS011;8552;48.120;-1.456;2022-07-05T08:28:25;0.47;;;0.40;;
16870;SDS011;8552;48.120;-1.456;2022-07-05T08:30:51;3.63;;;0.60;;
16870;SDS011;8552;48.120;-1.456;2022-07-05T08:33:17;0.73;;;0.35;;
16870;SDS011;8552;48.120;-1.456;2022-07-05T08:35:42;1.35;;;0.55;;
16870;SDS011;8552;48.120;-1.456;2022-07-05T08:38:08;2.15;;;0.57;;
16870;SDS011;8552;48.120;-1.456;2022-07-05T08:40:35;0.55;;;0.50;;
16870;SDS011;8552;48.120;-1.456;2022-07-05T08:43:03;1.38;;;0.43;;
16870;SDS011;8552;48.120;-1.456;2022-07-05T08:45:31;1.42;;;0.30;;
16870;SDS011;8552;48.120;-1.456;2022-07-05T08:47:57;0.85;;;0.30;;
16870;SDS011;8552;48.120;-1.456;2022-07-05T08:50:25;0.93;;;0.50;;
16870;SDS011;8552;48.120;-1.456;2022-07-05T08:52:52;1.98;;;0.30;;
16870;SDS011;8552;48.120;-1.456;2022-07-05T08:55:18;0.30;;;0.30;;
16870;SDS011;8552;48.120;-1.456;2022-07-05T08:57:44;0.77;;;0.35;;
16870;SDS011;8552;48.120;-1.456;2022-07-05T09:00:10;1.40;;;0.35;;
16870;SDS011;8552;48.120;-1.456;2022-07-05T09:02:36;0.28;;;0.28;;
16870;SDS011;8552;48.120;-1.456;2022-07-05T09:05:02;1.00;;;0.30;;
16870;SDS011;8552;48.120;-1.456;2022-07-05T09:07:30;0.55;;;0.40;;
16870;SDS011;8552;48.120;-1.456;2022-07-05T09:10:01;0.82;;;0.40;;
16870;SDS011;8552;48.120;-1.456;2022-07-05T09:12:27;0.85;;;0.30;;
16870;SDS011;8552;48.120;-1.456;2022-07-05T09:14:53;1.10;;;0.30;;
16870;SDS011;8552;48.120;-1.456;2022-07-05T09:17:20;0.68;;;0.30;;
16870;SDS011;8552;48.120;-1.456;2022-07-05T09:22:41;0.60;;;0.38;;
16870;SDS011;8552;48.120;-1.456;2022-07-05T09:25:19;0.30;;;0.30;;
16870;SDS011;8552;48.120;-1.456;2022-07-05T09:30:26;0.43;;;0.20;;
16870;SDS011;8552;48.120;-1.456;2022-07-05T09:35:38;0.50;;;0.35;;
16870;SDS011;8552;48.120;-1.456;2022-07-05T09:38:16;1.92;;;0.47;;
16870;SDS011;8552;48.120;-1.456;2022-07-05T09:40:47;0.85;;;0.28;;
16870;SDS011;8552;48.120;-1.456;2022-07-05T09:43:19;2.85;;;0.55;;
16870;SDS011;8552;48.120;-1.456;2022-07-05T09:45:53;0.30;;;0.30;;
16870;SDS011;8552;48.120;-1.456;2022-07-05T09:48:20;0.38;;;0.30;;
16870;SDS011;8552;48.120;-1.456;2022-07-05T09:50:46;0.30;;;0.30;;
16870;SDS011;8552;48.120;-1.456;2022-07-05T09:53:14;1.98;;;0.68;;
16870;SDS011;8552;48.120;-1.456;2022-07-05T09:55:39;0.43;;;0.43;;
16870;SDS011;8552;48.120;-1.456;2022-07-05T09:58:06;0.30;;;0.30;;
16870;SDS011;8552;48.120;-1.456;2022-07-05T10:00:32;0.50;;;0.50;;
16870;SDS011;8552;48.120;-1.456;2022-07-05T10:02:58;0.55;;;0.30;;
16870;SDS011;8552;48.120;-1.456;2022-07-05T10:05:31;0.40;;;0.30;;
16870;SDS011;8552;48.120;-1.456;2022-07-05T10:07:58;2.00;;;0.30;;
16870;SDS011;8552;48.120;-1.456;2022-07-05T10:10:25;0.40;;;0.38;;
16870;SDS011;8552;48.120;-1.456;2022-07-05T10:12:53;0.57;;;0.40;;
16870;SDS011;8552;48.120;-1.456;2022-07-05T10:15:22;0.60;;;0.40;;
16870;SDS011;8552;48.120;-1.456;2022-07-05T10:17:53;0.88;;;0.25;;
16870;SDS011;8552;48.120;-1.456;2022-07-05T10:20:34;0.35;;;0.35;;
16870;SDS011;8552;48.120;-1.456;2022-07-05T10:25:42;0.30;;;0.30;;
16870;SDS011;8552;48.120;-1.456;2022-07-05T10:28:18;0.40;;;0.20;;
16870;SDS011;8552;48.120;-1.456;2022-07-05T10:30:45;2.55;;;0.32;;
16870;SDS011;8552;48.120;-1.456;2022-07-05T10:33:11;2.28;;;0.65;;
16870;SDS011;8552;48.120;-1.456;2022-07-05T10:35:44;1.02;;;0.45;;
16870;SDS011;8552;48.120;-1.456;2022-07-05T10:38:10;1.60;;;0.38;;
16870;SDS011;8552;48.120;-1.456;2022-07-05T10:40:37;0.73;;;0.38;;
16870;SDS011;8552;48.120;-1.456;2022-07-05T10:43:08;0.68;;;0.28;;
16870;SDS011;8552;48.120;-1.456;2022-07-05T10:45:38;0.88;;;0.40;;
16870;SDS011;8552;48.120;-1.456;2022-07-05T10:48:12;2.35;;;0.30;;
16870;SDS011;8552;48.120;-1.456;2022-07-05T10:50:55;1.10;;;0.45;;
16870;SDS011;8552;48.120;-1.456;2022-07-05T11:06:25;2.88;;;0.32;;
16870;SDS011;8552;48.120;-1.456;2022-07-05T11:14:05;0.85;;;0.30;;
16870;SDS011;8552;48.120;-1.456;2022-07-05T11:19:35;0.32;;;0.30;;
16870;SDS011;8552;48.120;-1.456;2022-07-05T11:22:20;0.52;;;0.35;;
16870;SDS011;8552;48.120;-1.456;2022-07-05T11:24:46;1.38;;;0.40;;
16870;SDS011;8552;48.120;-1.456;2022-07-05T11:27:12;0.77;;;0.30;;
16870;SDS011;8552;48.120;-1.456;2022-07-05T11:29:41;0.70;;;0.30;;
16870;SDS011;8552;48.120;-1.456;2022-07-05T11:32:45;1.25;;;0.30;;
16870;SDS011;8552;48.120;-1.456;2022-07-05T11:35:16;0.85;;;0.25;;
16870;SDS011;8552;48.120;-1.456;2022-07-05T11:37:57;0.20;;;0.20;;
16870;SDS011;8552;48.120;-1.456;2022-07-05T11:40:40;0.80;;;0.32;;
16870;SDS011;8552;48.120;-1.456;2022-07-05T11:43:06;0.45;;;0.30;;
16870;SDS011;8552;48.120;-1.456;2022-07-05T11:45:33;1.20;;;0.35;;
16870;SDS011;8552;48.120;-1.456;2022-07-05T11:47:59;0.30;;;0.30;;
16870;SDS011;8552;48.120;-1.456;2022-07-05T11:50:32;0.25;;;0.20;;
16870;SDS011;8552;48.120;-1.456;2022-07-05T11:52:59;0.70;;;0.25;;
16870;SDS011;8552;48.120;-1.456;2022-07-05T11:55:26;0.45;;;0.20;;
16870;SDS011;8552;48.120;-1.456;2022-07-05T11:57:53;0.60;;;0.32;;
16870;SDS011;8552;48.120;-1.456;2022-07-05T12:00:33;1.77;;;0.50;;
16870;SDS011;8552;48.120;-1.456;2022-07-05T12:03:11;0.63;;;0.30;;
16870;SDS011;8552;48.120;-1.456;2022-07-05T12:05:38;0.52;;;0.28;;
16870;SDS011;8552;48.120;-1.456;2022-07-05T12:08:03;0.82;;;0.50;;
16870;SDS011;8552;48.120;-1.456;2022-07-05T12:10:29;0.55;;;0.55;;
16870;SDS011;8552;48.120;-1.456;2022-07-05T12:13:14;0.30;;;0.30;;
16870;SDS011;8552;48.120;-1.456;2022-07-05T12:15:39;0.22;;;0.20;;
16870;SDS011;8552;48.120;-1.456;2022-07-05T12:18:07;0.65;;;0.35;;
16870;SDS011;8552;48.120;-1.456;2022-07-05T12:20:36;2.30;;;0.32;;
16870;SDS011;8552;48.120;-1.456;2022-07-05T12:23:04;1.80;;;0.28;;
16870;SDS011;8552;48.120;-1.456;2022-07-05T12:25:31;1.00;;;0.30;;
16870;SDS011;8552;48.120;-1.456;2022-07-05T12:27:58;1.42;;;0.30;;
16870;SDS011;8552;48.120;-1.456;2022-07-05T12:30:29;0.20;;;0.20;;
16870;SDS011;8552;48.120;-1.456;2022-07-05T12:33:06;0.68;;;0.30;;
16870;SDS011;8552;48.120;-1.456;2022-07-05T12:38:09;1.10;;;0.20;;
16870;SDS011;8552;48.120;-1.456;2022-07-05T12:45:40;0.45;;;0.30;;
16870;SDS011;8552;48.120;-1.456;2022-07-05T12:48:08;0.70;;;0.20;;
16870;SDS011;8552;48.120;-1.456;2022-07-05T12:50:48;0.73;;;0.30;;
16870;SDS011;8552;48.120;-1.456;2022-07-05T12:53:15;1.65;;;0.40;;
16870;SDS011;8552;48.120;-1.456;2022-07-05T12:56:04;1.10;;;0.40;;
16870;SDS011;8552;48.120;-1.456;2022-07-05T13:01:19;1.33;;;0.70;;
16870;SDS011;8552;48.120;-1.456;2022-07-05T13:03:58;1.02;;;0.40;;
16870;SDS011;8552;48.120;-1.456;2022-07-05T13:09:16;0.98;;;0.43;;
16870;SDS011;8552;48.120;-1.456;2022-07-05T13:12:07;2.22;;;0.43;;
16870;SDS011;8552;48.120;-1.456;2022-07-05T13:17:11;0.47;;;0.30;;
16870;SDS011;8552;48.120;-1.456;2022-07-05T13:19:39;2.50;;;0.40;;
16870;SDS011;8552;48.120;-1.456;2022-07-05T13:22:06;1.45;;;0.25;;
16870;SDS011;8552;48.120;-1.456;2022-07-05T13:24:32;0.68;;;0.30;;
16870;SDS011;8552;48.120;-1.456;2022-07-05T13:26:58;0.73;;;0.43;;
16870;SDS011;8552;48.120;-1.456;2022-07-05T13:29:24;0.47;;;0.40;;
16870;SDS011;8552;48.120;-1.456;2022-07-05T13:31:50;0.77;;;0.30;;
16870;SDS011;8552;48.120;-1.456;2022-07-05T13:34:16;0.32;;;0.30;;
16870;SDS011;8552;48.120;-1.456;2022-07-05T13:36:42;0.82;;;0.43;;
16870;SDS011;8552;48.120;-1.456;2022-07-05T13:39:08;0.40;;;0.40;;
16870;SDS011;8552;48.120;-1.456;2022-07-05T13:41:33;0.47;;;0.30;;
16870;SDS011;8552;48.120;-1.456;2022-07-05T13:43:59;1.73;;;0.25;;
16870;SDS011;8552;48.120;-1.456;2022-07-05T13:46:25;1.25;;;0.30;;
16870;SDS011;8552;48.120;-1.456;2022-07-05T13:48:51;0.73;;;0.43;;
16870;SDS011;8552;48.120;-1.456;2022-07-05T13:51:16;2.70;;;0.30;;
16870;SDS011;8552;48.120;-1.456;2022-07-05T13:53:42;1.83;;;0.60;;
16870;SDS011;8552;48.120;-1.456;2022-07-05T13:56:08;0.40;;;0.40;;
16870;SDS011;8552;48.120;-1.456;2022-07-05T13:58:33;0.45;;;0.30;;
16870;SDS011;8552;48.120;-1.456;2022-07-05T14:00:59;2.05;;;0.40;;
16870;SDS011;8552;48.120;-1.456;2022-07-05T14:03:26;0.98;;;0.63;;
16870;SDS011;8552;48.120;-1.456;2022-07-05T14:05:52;0.68;;;0.30;;
16870;SDS011;8552;48.120;-1.456;2022-07-05T14:08:17;1.20;;;0.30;;
16870;SDS011;8552;48.120;-1.456;2022-07-05T14:10:55;0.65;;;0.30;;
16870;SDS011;8552;48.120;-1.456;2022-07-05T14:13:23;0.63;;;0.43;;
16870;SDS011;8552;48.120;-1.456;2022-07-05T14:15:50;1.08;;;0.30;;
16870;SDS011;8552;48.120;-1.456;2022-07-05T14:18:16;0.40;;;0.30;;
16870;SDS011;8552;48.120;-1.456;2022-07-05T14:20:43;3.00;;;0.73;;
16870;SDS011;8552;48.120;-1.456;2022-07-05T14:23:10;1.52;;;0.30;;
16870;SDS011;8552;48.120;-1.456;2022-07-05T14:25:37;1.92;;;0.50;;
16870;SDS011;8552;48.120;-1.456;2022-07-05T14:28:03;1.45;;;0.40;;
16870;SDS011;8552;48.120;-1.456;2022-07-05T14:30:41;0.82;;;0.40;;
16870;SDS011;8552;48.120;-1.456;2022-07-05T14:33:11;0.30;;;0.30;;
16870;SDS011;8552;48.120;-1.456;2022-07-05T14:35:38;0.63;;;0.30;;
16870;SDS011;8552;48.120;-1.456;2022-07-05T14:38:04;0.45;;;0.30;;
16870;SDS011;8552;48.120;-1.456;2022-07-05T14:40:31;1.83;;;0.40;;
16870;SDS011;8552;48.120;-1.456;2022-07-05T14:42:58;1.92;;;0.47;;
16870;SDS011;8552;48.120;-1.456;2022-07-05T14:45:24;0.80;;;0.30;;
16870;SDS011;8552;48.120;-1.456;2022-07-05T14:47:51;0.85;;;0.20;;
16870;SDS011;8552;48.120;-1.456;2022-07-05T14:50:17;0.98;;;0.40;;
16870;SDS011;8552;48.120;-1.456;2022-07-05T14:52:43;0.57;;;0.30;;
16870;SDS011;8552;48.120;-1.456;2022-07-05T14:55:10;1.35;;;0.60;;
16870;SDS011;8552;48.120;-1.456;2022-07-05T14:57:36;0.90;;;0.40;;
16870;SDS011;8552;48.120;-1.456;2022-07-05T15:00:06;0.73;;;0.40;;
16870;SDS011;8552;48.120;-1.456;2022-07-05T15:02:34;1.27;;;0.50;;
16870;SDS011;8552;48.120;-1.456;2022-07-05T15:05:00;1.25;;;0.40;;
16870;SDS011;8552;48.120;-1.456;2022-07-05T15:07:26;0.52;;;0.40;;
16870;SDS011;8552;48.120;-1.456;2022-07-05T15:09:52;1.45;;;0.57;;
16870;SDS011;8552;48.120;-1.456;2022-07-05T15:12:18;1.70;;;0.40;;
16870;SDS011;8552;48.120;-1.456;2022-07-05T15:14:44;2.30;;;0.45;;
16870;SDS011;8552;48.120;-1.456;2022-07-05T15:17:09;2.83;;;0.50;;
16870;SDS011;8552;48.120;-1.456;2022-07-05T15:19:35;1.13;;;0.40;;
16870;SDS011;8552;48.120;-1.456;2022-07-05T15:22:04;0.88;;;0.50;;
16870;SDS011;8552;48.120;-1.456;2022-07-05T15:24:29;1.95;;;0.40;;
16870;SDS011;8552;48.120;-1.456;2022-07-05T15:26:55;1.38;;;0.55;;
16870;SDS011;8552;48.120;-1.456;2022-07-05T15:29:21;0.47;;;0.30;;
16870;SDS011;8552;48.120;-1.456;2022-07-05T15:31:47;1.27;;;0.40;;
16870;SDS011;8552;48.120;-1.456;2022-07-05T15:34:12;0.50;;;0.45;;
16870;SDS011;8552;48.120;-1.456;2022-07-05T15:36:38;3.30;;;0.63;;
16870;SDS011;8552;48.120;-1.456;2022-07-05T15:39:05;1.30;;;0.30;;
16870;SDS011;8552;48.120;-1.456;2022-07-05T15:41:32;2.35;;;0.30;;
16870;SDS011;8552;48.120;-1.456;2022-07-05T15:43:58;2.30;;;0.60;;
16870;SDS011;8552;48.120;-1.456;2022-07-05T15:46:24;0.90;;;0.38;;
16870;SDS011;8552;48.120;-1.456;2022-07-05T15:48:50;1.20;;;0.40;;
16870;SDS011;8552;48.120;-1.456;2022-07-05T15:51:19;0.50;;;0.30;;
16870;SDS011;8552;48.120;-1.456;2022-07-05T15:53:45;1.27;;;0.47;;
16870;SDS011;8552;48.120;-1.456;2022-07-05T15:56:11;0.40;;;0.30;;
16870;SDS011;8552;48.120;-1.456;2022-07-05T15:58:38;1.13;;;0.50;;
16870;SDS011;8552;48.120;-1.456;2022-07-05T16:01:05;0.80;;;0.40;;
16870;SDS011;8552;48.120;-1.456;2022-07-05T16:03:31;0.52;;;0.30;;
16870;SDS011;8552;48.120;-1.456;2022-07-05T16:05:57;0.80;;;0.30;;
16870;SDS011;8552;48.120;-1.456;2022-07-05T16:08:24;0.52;;;0.52;;
16870;SDS011;8552;48.120;-1.456;2022-07-05T16:10:53;2.80;;;0.70;;
16870;SDS011;8552;48.120;-1.456;2022-07-05T16:13:18;2.20;;;0.40;;
16870;SDS011;8552;48.120;-1.456;2022-07-05T16:15:44;0.45;;;0.30;;
16870;SDS011;8552;48.120;-1.456;2022-07-05T16:18:29;0.73;;;0.30;;
16870;SDS011;8552;48.120;-1.456;2022-07-05T16:21:01;0.60;;;0.28;;
16870;SDS011;8552;48.120;-1.456;2022-07-05T16:23:29;0.45;;;0.30;;
16870;SDS011;8552;48.120;-1.456;2022-07-05T16:25:56;1.30;;;0.30;;
16870;SDS011;8552;48.120;-1.456;2022-07-05T16:28:24;1.52;;;0.40;;
16870;SDS011;8552;48.120;-1.456;2022-07-05T16:30:56;0.73;;;0.38;;
16870;SDS011;8552;48.120;-1.456;2022-07-05T20:29:37;3.92;;;1.00;;
16870;SDS011;8552;48.120;-1.456;2022-07-05T20:32:05;2.55;;;0.95;;
16870;SDS011;8552;48.120;-1.456;2022-07-05T20:34:32;3.15;;;1.13;;
16870;SDS011;8552;48.120;-1.456;2022-07-05T20:36:59;2.38;;;0.90;;
16870;SDS011;8552;48.120;-1.456;2022-07-05T20:39:26;3.83;;;1.30;;
16870;SDS011;8552;48.120;-1.456;2022-07-05T20:41:54;2.72;;;0.75;;
16870;SDS011;8552;48.120;-1.456;2022-07-05T20:44:21;3.58;;;1.33;;
16870;SDS011;8552;48.120;-1.456;2022-07-05T20:46:52;2.90;;;1.08;;
16870;SDS011;8552;48.120;-1.456;2022-07-05T20:49:18;5.53;;;1.10;;
16870;SDS011;8552;48.120;-1.456;2022-07-05T20:51:44;4.28;;;1.13;;
16870;SDS011;8552;48.120;-1.456;2022-07-05T20:54:11;3.20;;;1.48;;
